Cut Bank Municipal Airport
KCTB : now visible

Airfield :











YOU CAN JOIN US ON...

 
LOGIN :

Register | Disclaimer

   EN    FR    IT 

 









Legend :    VFR   Marginal VFR   IFR   Intensive IFR   Very Intensive IFR
Visi :
Ceiling :
>= 8 km
>= 3000ft
5 to 8 km
1000 to 3000 ft
1500m to 5 km
500 to 1000 ft
800 to 1500m
200 to 500 ft
< 800m
< 200 ft
Symbols :   Thunderstorms  Fog  Heavy snow  Heavy precipitations  Wind > 20 kt






- Airport Elevation : 3854 ft


KCTB - Cut Bank Municipal

CURRENT METAR :
  • 170156Z AUTO 24019G29KT 10SM CLR 14/M05 A2996 RMK AO2 PK WND 24029/0149 SLP134 T01441050

EXPIRED METARs :
  • 170056Z AUTO 24010KT 10SM CLR 13/M04 A2997 RMK AO2 PK WND 26027/2357 SLP142 T01331044
  • 162356Z AUTO 25019G28KT 10SM CLR 18/M04 A2998 RMK AO2 PK WND 24029/2345 SLP136 T01781044 10189 20144 58006

TAF KCTB
Valid from the 17 at 01:00 until the 18 at 00:00 UTC


170113Z 1701/1724 24015KT P6SM SCT250
FM170300 23013G21KT P6SM SCT250
KZLC FIR / North America



MET'MAP, your aeronautical weather chart ! - Copyright ORBIFLY December 2007 - Disclaimer

ORBIFLY MET'MAP TEAM :

Programming & Development : Alexandra Zaïnal
Concept & original design : Baudouin d'Aumeries
Assistance for programming : Marc-Olivier Méhu
Technical & hardware support : Manuel Goepfert

Contact : metmap@orbifly.com




SOURCES & CREDITS :

   NOAA       Earth
Advisory